sensor_id;sensor_type;location;lat;lon;timestamp;P1;durP1;ratioP1;P2;durP2;ratioP2
51854;SDS011;37895;53.240;6.572;2024-03-17T00:01:52;17.90;;;8.75;;
51854;SDS011;37895;53.240;6.572;2024-03-17T00:04:18;16.70;;;9.38;;
51854;SDS011;37895;53.240;6.572;2024-03-17T00:06:44;17.10;;;9.50;;
51854;SDS011;37895;53.240;6.572;2024-03-17T00:09:10;19.90;;;9.27;;
51854;SDS011;37895;53.240;6.572;2024-03-17T00:11:36;14.70;;;8.32;;
51854;SDS011;37895;53.240;6.572;2024-03-17T00:14:02;16.33;;;8.10;;
51854;SDS011;37895;53.240;6.572;2024-03-17T00:16:27;15.90;;;8.38;;
51854;SDS011;37895;53.240;6.572;2024-03-17T00:18:53;20.45;;;9.02;;
51854;SDS011;37895;53.240;6.572;2024-03-17T00:21:20;13.55;;;7.30;;
51854;SDS011;37895;53.240;6.572;2024-03-17T00:23:49;16.33;;;7.70;;
51854;SDS011;37895;53.240;6.572;2024-03-17T00:26:15;16.85;;;7.40;;
51854;SDS011;37895;53.240;6.572;2024-03-17T00:28:41;16.60;;;6.22;;
51854;SDS011;37895;53.240;6.572;2024-03-17T00:31:07;18.45;;;7.13;;
51854;SDS011;37895;53.240;6.572;2024-03-17T00:33:35;19.17;;;8.02;;
51854;SDS011;37895;53.240;6.572;2024-03-17T00:36:01;17.13;;;7.70;;
51854;SDS011;37895;53.240;6.572;2024-03-17T00:38:26;15.10;;;7.50;;
51854;SDS011;37895;53.240;6.572;2024-03-17T00:40:52;14.80;;;7.00;;
51854;SDS011;37895;53.240;6.572;2024-03-17T00:43:18;13.18;;;6.57;;
51854;SDS011;37895;53.240;6.572;2024-03-17T00:45:43;13.88;;;7.43;;
51854;SDS011;37895;53.240;6.572;2024-03-17T00:48:15;13.98;;;7.07;;
51854;SDS011;37895;53.240;6.572;2024-03-17T00:50:41;13.52;;;6.18;;
51854;SDS011;37895;53.240;6.572;2024-03-17T00:53:08;13.38;;;6.63;;
51854;SDS011;37895;53.240;6.572;2024-03-17T00:55:34;15.15;;;7.38;;
51854;SDS011;37895;53.240;6.572;2024-03-17T00:58:00;14.13;;;6.70;;
51854;SDS011;37895;53.240;6.572;2024-03-17T01:00:26;14.70;;;6.88;;
51854;SDS011;37895;53.240;6.572;2024-03-17T01:02:52;16.33;;;6.53;;
51854;SDS011;37895;53.240;6.572;2024-03-17T01:05:17;15.15;;;6.75;;
51854;SDS011;37895;53.240;6.572;2024-03-17T01:07:43;8.32;;;5.75;;
51854;SDS011;37895;53.240;6.572;2024-03-17T01:10:09;13.88;;;6.32;;
51854;SDS011;37895;53.240;6.572;2024-03-17T01:12:34;8.43;;;6.57;;
51854;SDS011;37895;53.240;6.572;2024-03-17T01:15:02;14.45;;;6.65;;
51854;SDS011;37895;53.240;6.572;2024-03-17T01:17:29;9.50;;;6.03;;
51854;SDS011;37895;53.240;6.572;2024-03-17T01:19:55;11.00;;;6.65;;
51854;SDS011;37895;53.240;6.572;2024-03-17T01:22:21;9.80;;;6.03;;
51854;SDS011;37895;53.240;6.572;2024-03-17T01:24:47;12.93;;;6.75;;
51854;SDS011;37895;53.240;6.572;2024-03-17T01:27:12;11.63;;;6.30;;
51854;SDS011;37895;53.240;6.572;2024-03-17T01:29:41;11.63;;;6.03;;
51854;SDS011;37895;53.240;6.572;2024-03-17T01:32:10;12.90;;;7.00;;
51854;SDS011;37895;53.240;6.572;2024-03-17T01:37:02;10.63;;;6.47;;
51854;SDS011;37895;53.240;6.572;2024-03-17T01:39:27;11.02;;;7.35;;
51854;SDS011;37895;53.240;6.572;2024-03-17T01:41:53;14.50;;;7.40;;
51854;SDS011;37895;53.240;6.572;2024-03-17T01:44:21;15.55;;;7.60;;
51854;SDS011;37895;53.240;6.572;2024-03-17T01:46:49;10.90;;;7.50;;
51854;SDS011;37895;53.240;6.572;2024-03-17T01:49:16;11.57;;;8.10;;
51854;SDS011;37895;53.240;6.572;2024-03-17T01:51:43;11.75;;;8.32;;
51854;SDS011;37895;53.240;6.572;2024-03-17T01:54:10;14.73;;;8.30;;
51854;SDS011;37895;53.240;6.572;2024-03-17T01:59:20;14.77;;;8.55;;
51854;SDS011;37895;53.240;6.572;2024-03-17T02:01:47;13.52;;;8.40;;
51854;SDS011;37895;53.240;6.572;2024-03-17T02:07:17;11.98;;;7.72;;
51854;SDS011;37895;53.240;6.572;2024-03-17T02:09:43;13.07;;;8.13;;
51854;SDS011;37895;53.240;6.572;2024-03-17T02:12:09;14.98;;;7.90;;
51854;SDS011;37895;53.240;6.572;2024-03-17T02:14:36;15.68;;;8.25;;
51854;SDS011;37895;53.240;6.572;2024-03-17T02:19:47;12.73;;;7.53;;
51854;SDS011;37895;53.240;6.572;2024-03-17T02:22:13;12.93;;;7.60;;
51854;SDS011;37895;53.240;6.572;2024-03-17T02:24:42;15.20;;;8.63;;
51854;SDS011;37895;53.240;6.572;2024-03-17T02:29:34;12.55;;;8.85;;
51854;SDS011;37895;53.240;6.572;2024-03-17T02:32:01;13.60;;;7.18;;
51854;SDS011;37895;53.240;6.572;2024-03-17T02:34:32;16.95;;;8.68;;
51854;SDS011;37895;53.240;6.572;2024-03-17T02:37:04;12.93;;;8.13;;
51854;SDS011;37895;53.240;6.572;2024-03-17T02:39:31;12.32;;;8.02;;
51854;SDS011;37895;53.240;6.572;2024-03-17T02:42:05;14.68;;;8.38;;
51854;SDS011;37895;53.240;6.572;2024-03-17T02:44:32;12.13;;;8.95;;
51854;SDS011;37895;53.240;6.572;2024-03-17T02:46:59;16.30;;;8.98;;
51854;SDS011;37895;53.240;6.572;2024-03-17T02:49:25;11.75;;;9.07;;
51854;SDS011;37895;53.240;6.572;2024-03-17T02:52:09;18.15;;;9.45;;
51854;SDS011;37895;53.240;6.572;2024-03-17T02:54:38;16.60;;;9.32;;
51854;SDS011;37895;53.240;6.572;2024-03-17T02:57:05;15.45;;;9.00;;
51854;SDS011;37895;53.240;6.572;2024-03-17T02:59:34;12.93;;;8.68;;
51854;SDS011;37895;53.240;6.572;2024-03-17T03:01:59;16.23;;;10.57;;
51854;SDS011;37895;53.240;6.572;2024-03-17T03:04:26;19.38;;;11.32;;
51854;SDS011;37895;53.240;6.572;2024-03-17T03:06:52;15.27;;;10.43;;
51854;SDS011;37895;53.240;6.572;2024-03-17T03:09:17;15.30;;;10.82;;
51854;SDS011;37895;53.240;6.572;2024-03-17T03:11:51;13.15;;;9.70;;
51854;SDS011;37895;53.240;6.572;2024-03-17T03:16:42;15.93;;;9.68;;
51854;SDS011;37895;53.240;6.572;2024-03-17T03:19:08;14.77;;;9.30;;
51854;SDS011;37895;53.240;6.572;2024-03-17T03:21:34;11.60;;;8.60;;
51854;SDS011;37895;53.240;6.572;2024-03-17T03:24:00;9.82;;;8.05;;
51854;SDS011;37895;53.240;6.572;2024-03-17T03:26:26;12.30;;;8.00;;
51854;SDS011;37895;53.240;6.572;2024-03-17T03:28:53;11.07;;;7.88;;
51854;SDS011;37895;53.240;6.572;2024-03-17T03:31:20;14.23;;;9.20;;
51854;SDS011;37895;53.240;6.572;2024-03-17T03:33:46;16.50;;;10.63;;
51854;SDS011;37895;53.240;6.572;2024-03-17T03:36:13;14.50;;;9.82;;
51854;SDS011;37895;53.240;6.572;2024-03-17T03:38:40;13.60;;;9.90;;
51854;SDS011;37895;53.240;6.572;2024-03-17T03:41:06;11.13;;;8.32;;
51854;SDS011;37895;53.240;6.572;2024-03-17T03:43:32;10.90;;;7.53;;
51854;SDS011;37895;53.240;6.572;2024-03-17T03:45:59;14.82;;;7.28;;
51854;SDS011;37895;53.240;6.572;2024-03-17T03:48:25;12.40;;;6.78;;
51854;SDS011;37895;53.240;6.572;2024-03-17T03:50:50;12.60;;;6.85;;
51854;SDS011;37895;53.240;6.572;2024-03-17T03:53:16;8.85;;;6.72;;
51854;SDS011;37895;53.240;6.572;2024-03-17T03:55:42;9.80;;;7.05;;
51854;SDS011;37895;53.240;6.572;2024-03-17T03:58:07;9.73;;;5.75;;
51854;SDS011;37895;53.240;6.572;2024-03-17T04:00:33;13.25;;;6.45;;
51854;SDS011;37895;53.240;6.572;2024-03-17T04:02:59;8.93;;;5.88;;
51854;SDS011;37895;53.240;6.572;2024-03-17T04:05:26;11.52;;;5.88;;
51854;SDS011;37895;53.240;6.572;2024-03-17T04:07:53;9.32;;;6.05;;
51854;SDS011;37895;53.240;6.572;2024-03-17T04:10:19;13.13;;;5.97;;
51854;SDS011;37895;53.240;6.572;2024-03-17T04:12:45;8.82;;;5.93;;
51854;SDS011;37895;53.240;6.572;2024-03-17T04:15:12;10.75;;;6.18;;
51854;SDS011;37895;53.240;6.572;2024-03-17T04:17:39;10.35;;;6.22;;
51854;SDS011;37895;53.240;6.572;2024-03-17T04:20:05;8.70;;;6.38;;
51854;SDS011;37895;53.240;6.572;2024-03-17T04:22:33;10.27;;;6.10;;
51854;SDS011;37895;53.240;6.572;2024-03-17T04:24:59;11.93;;;7.03;;
51854;SDS011;37895;53.240;6.572;2024-03-17T04:27:27;9.63;;;6.90;;
51854;SDS011;37895;53.240;6.572;2024-03-17T04:29:53;11.07;;;7.20;;
51854;SDS011;37895;53.240;6.572;2024-03-17T04:32:20;11.18;;;6.85;;
51854;SDS011;37895;53.240;6.572;2024-03-17T04:37:12;11.60;;;7.47;;
51854;SDS011;37895;53.240;6.572;2024-03-17T04:39:38;8.05;;;6.70;;
51854;SDS011;37895;53.240;6.572;2024-03-17T04:42:08;9.90;;;6.80;;
51854;SDS011;37895;53.240;6.572;2024-03-17T04:44:34;11.52;;;7.53;;
51854;SDS011;37895;53.240;6.572;2024-03-17T04:47:00;13.20;;;7.93;;
51854;SDS011;37895;53.240;6.572;2024-03-17T04:49:27;9.82;;;7.53;;
51854;SDS011;37895;53.240;6.572;2024-03-17T04:51:53;8.52;;;5.78;;
51854;SDS011;37895;53.240;6.572;2024-03-17T04:54:18;11.50;;;6.72;;
51854;SDS011;37895;53.240;6.572;2024-03-17T04:56:44;11.10;;;7.20;;
51854;SDS011;37895;53.240;6.572;2024-03-17T04:59:10;9.77;;;6.47;;
51854;SDS011;37895;53.240;6.572;2024-03-17T05:01:35;8.48;;;6.10;;
51854;SDS011;37895;53.240;6.572;2024-03-17T05:04:02;8.35;;;5.65;;
51854;SDS011;37895;53.240;6.572;2024-03-17T05:06:28;6.93;;;5.28;;
51854;SDS011;37895;53.240;6.572;2024-03-17T05:08:54;9.07;;;5.03;;
51854;SDS011;37895;53.240;6.572;2024-03-17T05:11:20;11.02;;;5.72;;
51854;SDS011;37895;53.240;6.572;2024-03-17T05:13:45;8.38;;;5.28;;
51854;SDS011;37895;53.240;6.572;2024-03-17T05:16:11;11.50;;;5.50;;
51854;SDS011;37895;53.240;6.572;2024-03-17T05:18:37;9.52;;;5.03;;
51854;SDS011;37895;53.240;6.572;2024-03-17T05:21:07;8.32;;;5.72;;
51854;SDS011;37895;53.240;6.572;2024-03-17T05:23:34;10.70;;;5.70;;
51854;SDS011;37895;53.240;6.572;2024-03-17T05:26:02;8.68;;;5.40;;
51854;SDS011;37895;53.240;6.572;2024-03-17T05:28:31;9.18;;;6.20;;
51854;SDS011;37895;53.240;6.572;2024-03-17T05:33:24;10.00;;;5.85;;
51854;SDS011;37895;53.240;6.572;2024-03-17T05:38:18;7.72;;;5.65;;
51854;SDS011;37895;53.240;6.572;2024-03-17T05:40:44;8.48;;;5.70;;
51854;SDS011;37895;53.240;6.572;2024-03-17T05:43:31;9.38;;;5.40;;
51854;SDS011;37895;53.240;6.572;2024-03-17T05:46:07;10.90;;;5.78;;
51854;SDS011;37895;53.240;6.572;2024-03-17T05:48:34;12.25;;;6.28;;
51854;SDS011;37895;53.240;6.572;2024-03-17T05:51:03;13.77;;;5.95;;
51854;SDS011;37895;53.240;6.572;2024-03-17T05:53:29;10.27;;;5.90;;
51854;SDS011;37895;53.240;6.572;2024-03-17T05:55:58;12.70;;;6.38;;
51854;SDS011;37895;53.240;6.572;2024-03-17T05:58:24;10.32;;;6.28;;
51854;SDS011;37895;53.240;6.572;2024-03-17T06:00:49;11.98;;;6.60;;
51854;SDS011;37895;53.240;6.572;2024-03-17T06:03:15;10.27;;;6.43;;
51854;SDS011;37895;53.240;6.572;2024-03-17T06:05:42;10.27;;;6.97;;
51854;SDS011;37895;53.240;6.572;2024-03-17T06:08:10;11.15;;;5.85;;
51854;SDS011;37895;53.240;6.572;2024-03-17T06:10:36;14.57;;;6.43;;
51854;SDS011;37895;53.240;6.572;2024-03-17T06:13:03;12.57;;;6.57;;
51854;SDS011;37895;53.240;6.572;2024-03-17T06:15:30;11.20;;;6.85;;
51854;SDS011;37895;53.240;6.572;2024-03-17T06:17:56;10.35;;;6.78;;
51854;SDS011;37895;53.240;6.572;2024-03-17T06:20:22;15.80;;;7.30;;
51854;SDS011;37895;53.240;6.572;2024-03-17T06:22:51;12.65;;;6.85;;
51854;SDS011;37895;53.240;6.572;2024-03-17T06:25:20;11.25;;;7.70;;
51854;SDS011;37895;53.240;6.572;2024-03-17T06:27:52;14.95;;;7.15;;
51854;SDS011;37895;53.240;6.572;2024-03-17T06:30:18;15.98;;;7.53;;
51854;SDS011;37895;53.240;6.572;2024-03-17T06:32:44;13.13;;;7.50;;
51854;SDS011;37895;53.240;6.572;2024-03-17T06:35:11;14.50;;;7.43;;
51854;SDS011;37895;53.240;6.572;2024-03-17T06:37:40;13.98;;;6.85;;
51854;SDS011;37895;53.240;6.572;2024-03-17T06:40:12;11.88;;;6.93;;
51854;SDS011;37895;53.240;6.572;2024-03-17T06:42:39;12.77;;;6.70;;
51854;SDS011;37895;53.240;6.572;2024-03-17T06:45:05;14.75;;;8.23;;
51854;SDS011;37895;53.240;6.572;2024-03-17T06:47:38;11.23;;;7.43;;
51854;SDS011;37895;53.240;6.572;2024-03-17T06:50:04;17.33;;;7.65;;
51854;SDS011;37895;53.240;6.572;2024-03-17T06:52:31;10.88;;;6.70;;
51854;SDS011;37895;53.240;6.572;2024-03-17T06:54:57;13.43;;;7.43;;
51854;SDS011;37895;53.240;6.572;2024-03-17T06:59:51;11.95;;;7.07;;
51854;SDS011;37895;53.240;6.572;2024-03-17T07:02:17;10.60;;;7.43;;
51854;SDS011;37895;53.240;6.572;2024-03-17T07:04:44;12.45;;;6.80;;
51854;SDS011;37895;53.240;6.572;2024-03-17T07:07:11;13.13;;;7.10;;
51854;SDS011;37895;53.240;6.572;2024-03-17T07:09:37;12.07;;;6.75;;
51854;SDS011;37895;53.240;6.572;2024-03-17T07:12:07;14.25;;;7.20;;
51854;SDS011;37895;53.240;6.572;2024-03-17T07:14:33;10.73;;;6.63;;
51854;SDS011;37895;53.240;6.572;2024-03-17T07:16:59;11.35;;;6.60;;
51854;SDS011;37895;53.240;6.572;2024-03-17T07:19:29;11.35;;;6.00;;
51854;SDS011;37895;53.240;6.572;2024-03-17T07:21:56;14.68;;;6.47;;
51854;SDS011;37895;53.240;6.572;2024-03-17T07:26:48;10.48;;;5.80;;
51854;SDS011;37895;53.240;6.572;2024-03-17T07:29:14;12.15;;;5.57;;
51854;SDS011;37895;53.240;6.572;2024-03-17T07:31:40;13.02;;;6.13;;
51854;SDS011;37895;53.240;6.572;2024-03-17T07:34:06;10.50;;;6.20;;
51854;SDS011;37895;53.240;6.572;2024-03-17T07:36:31;12.60;;;5.40;;
51854;SDS011;37895;53.240;6.572;2024-03-17T07:38:57;16.67;;;7.40;;
51854;SDS011;37895;53.240;6.572;2024-03-17T07:41:23;15.80;;;6.93;;
51854;SDS011;37895;53.240;6.572;2024-03-17T07:43:51;14.13;;;6.07;;
51854;SDS011;37895;53.240;6.572;2024-03-17T07:46:17;10.95;;;5.38;;
51854;SDS011;37895;53.240;6.572;2024-03-17T07:48:43;15.43;;;5.60;;
51854;SDS011;37895;53.240;6.572;2024-03-17T07:51:10;10.18;;;5.32;;
51854;SDS011;37895;53.240;6.572;2024-03-17T07:53:38;13.23;;;5.40;;
51854;SDS011;37895;53.240;6.572;2024-03-17T07:56:05;13.63;;;5.93;;
51854;SDS011;37895;53.240;6.572;2024-03-17T07:58:34;13.18;;;5.50;;
51854;SDS011;37895;53.240;6.572;2024-03-17T08:01:03;9.95;;;5.65;;
51854;SDS011;37895;53.240;6.572;2024-03-17T08:03:40;9.38;;;5.00;;
51854;SDS011;37895;53.240;6.572;2024-03-17T08:06:06;11.68;;;5.68;;
51854;SDS011;37895;53.240;6.572;2024-03-17T08:08:33;11.75;;;4.97;;
51854;SDS011;37895;53.240;6.572;2024-03-17T08:11:00;9.88;;;5.82;;
51854;SDS011;37895;53.240;6.572;2024-03-17T08:13:29;14.30;;;5.93;;
51854;SDS011;37895;53.240;6.572;2024-03-17T08:16:00;11.35;;;5.63;;
51854;SDS011;37895;53.240;6.572;2024-03-17T08:18:35;11.82;;;5.15;;
51854;SDS011;37895;53.240;6.572;2024-03-17T08:21:02;9.45;;;5.03;;
51854;SDS011;37895;53.240;6.572;2024-03-17T08:23:31;10.57;;;5.38;;
51854;SDS011;37895;53.240;6.572;2024-03-17T08:26:01;10.32;;;5.07;;
51854;SDS011;37895;53.240;6.572;2024-03-17T08:28:27;9.15;;;4.80;;
51854;SDS011;37895;53.240;6.572;2024-03-17T08:33:19;9.25;;;4.85;;
51854;SDS011;37895;53.240;6.572;2024-03-17T08:35:52;9.68;;;4.82;;
51854;SDS011;37895;53.240;6.572;2024-03-17T08:38:28;10.15;;;4.72;;
51854;SDS011;37895;53.240;6.572;2024-03-17T08:40:56;8.95;;;5.03;;
51854;SDS011;37895;53.240;6.572;2024-03-17T08:43:22;8.93;;;4.25;;
51854;SDS011;37895;53.240;6.572;2024-03-17T08:45:55;9.70;;;4.78;;
51854;SDS011;37895;53.240;6.572;2024-03-17T08:48:26;9.32;;;4.85;;
51854;SDS011;37895;53.240;6.572;2024-03-17T08:50:54;9.15;;;5.05;;
51854;SDS011;37895;53.240;6.572;2024-03-17T08:53:20;10.93;;;5.03;;
51854;SDS011;37895;53.240;6.572;2024-03-17T08:55:46;11.40;;;4.60;;
51854;SDS011;37895;53.240;6.572;2024-03-17T08:58:12;13.48;;;4.80;;
51854;SDS011;37895;53.240;6.572;2024-03-17T09:00:38;13.18;;;5.47;;
51854;SDS011;37895;53.240;6.572;2024-03-17T09:03:05;12.13;;;4.82;;
51854;SDS011;37895;53.240;6.572;2024-03-17T09:05:34;9.45;;;4.82;;
51854;SDS011;37895;53.240;6.572;2024-03-17T09:08:00;9.68;;;4.93;;
51854;SDS011;37895;53.240;6.572;2024-03-17T09:10:26;9.32;;;4.80;;
51854;SDS011;37895;53.240;6.572;2024-03-17T09:12:51;11.20;;;5.05;;
51854;SDS011;37895;53.240;6.572;2024-03-17T09:15:17;10.65;;;4.95;;
51854;SDS011;37895;53.240;6.572;2024-03-17T09:17:42;12.25;;;5.88;;
51854;SDS011;37895;53.240;6.572;2024-03-17T09:20:09;10.63;;;5.75;;
51854;SDS011;37895;53.240;6.572;2024-03-17T09:22:37;11.95;;;5.53;;
51854;SDS011;37895;53.240;6.572;2024-03-17T09:25:07;8.02;;;5.18;;
51854;SDS011;37895;53.240;6.572;2024-03-17T09:27:33;11.00;;;5.45;;
51854;SDS011;37895;53.240;6.572;2024-03-17T09:30:01;11.80;;;5.63;;
51854;SDS011;37895;53.240;6.572;2024-03-17T09:32:30;10.43;;;5.35;;
51854;SDS011;37895;53.240;6.572;2024-03-17T09:34:56;10.05;;;5.57;;
51854;SDS011;37895;53.240;6.572;2024-03-17T09:37:21;14.63;;;6.40;;
51854;SDS011;37895;53.240;6.572;2024-03-17T09:39:48;12.93;;;6.43;;
51854;SDS011;37895;53.240;6.572;2024-03-17T09:42:18;11.40;;;6.45;;
51854;SDS011;37895;53.240;6.572;2024-03-17T09:44:47;12.93;;;6.60;;
51854;SDS011;37895;53.240;6.572;2024-03-17T09:47:16;12.43;;;6.13;;
51854;SDS011;37895;53.240;6.572;2024-03-17T09:49:46;14.85;;;7.30;;
51854;SDS011;37895;53.240;6.572;2024-03-17T09:54:43;10.77;;;6.90;;
51854;SDS011;37895;53.240;6.572;2024-03-17T09:57:12;12.48;;;6.50;;
51854;SDS011;37895;53.240;6.572;2024-03-17T09:59:41;12.95;;;7.38;;
51854;SDS011;37895;53.240;6.572;2024-03-17T10:02:09;12.77;;;7.40;;
51854;SDS011;37895;53.240;6.572;2024-03-17T10:04:43;13.05;;;7.78;;
51854;SDS011;37895;53.240;6.572;2024-03-17T10:07:09;13.77;;;7.70;;
51854;SDS011;37895;53.240;6.572;2024-03-17T10:09:34;12.32;;;7.40;;
51854;SDS011;37895;53.240;6.572;2024-03-17T10:12:01;11.05;;;8.15;;
51854;SDS011;37895;53.240;6.572;2024-03-17T10:14:27;13.63;;;7.68;;
51854;SDS011;37895;53.240;6.572;2024-03-17T10:16:52;13.10;;;7.78;;
51854;SDS011;37895;53.240;6.572;2024-03-17T10:19:24;10.90;;;7.63;;
51854;SDS011;37895;53.240;6.572;2024-03-17T10:21:57;14.63;;;7.90;;
51854;SDS011;37895;53.240;6.572;2024-03-17T10:24:25;11.38;;;7.80;;
51854;SDS011;37895;53.240;6.572;2024-03-17T10:26:54;13.82;;;8.07;;
51854;SDS011;37895;53.240;6.572;2024-03-17T10:31:49;9.90;;;7.97;;
51854;SDS011;37895;53.240;6.572;2024-03-17T10:34:16;13.40;;;8.18;;
51854;SDS011;37895;53.240;6.572;2024-03-17T10:36:44;15.00;;;8.27;;
51854;SDS011;37895;53.240;6.572;2024-03-17T10:39:25;12.52;;;8.52;;
51854;SDS011;37895;53.240;6.572;2024-03-17T10:41:58;12.45;;;8.95;;
51854;SDS011;37895;53.240;6.572;2024-03-17T10:44:28;12.75;;;8.38;;
51854;SDS011;37895;53.240;6.572;2024-03-17T10:46:58;15.50;;;8.70;;
51854;SDS011;37895;53.240;6.572;2024-03-17T10:49:34;14.52;;;8.25;;
51854;SDS011;37895;53.240;6.572;2024-03-17T10:52:00;12.87;;;8.90;;
51854;SDS011;37895;53.240;6.572;2024-03-17T10:54:29;11.85;;;7.97;;
51854;SDS011;37895;53.240;6.572;2024-03-17T10:56:56;12.95;;;8.63;;
51854;SDS011;37895;53.240;6.572;2024-03-17T10:59:38;12.70;;;8.65;;
51854;SDS011;37895;53.240;6.572;2024-03-17T11:02:12;11.18;;;7.88;;
51854;SDS011;37895;53.240;6.572;2024-03-17T11:04:52;10.70;;;7.90;;
51854;SDS011;37895;53.240;6.572;2024-03-17T11:07:22;11.32;;;8.27;;
51854;SDS011;37895;53.240;6.572;2024-03-17T11:09:50;10.90;;;8.60;;
51854;SDS011;37895;53.240;6.572;2024-03-17T11:12:39;11.48;;;8.73;;
51854;SDS011;37895;53.240;6.572;2024-03-17T11:17:44;13.63;;;9.10;;
51854;SDS011;37895;53.240;6.572;2024-03-17T11:22:43;12.27;;;8.85;;
51854;SDS011;37895;53.240;6.572;2024-03-17T11:27:56;11.30;;;9.55;;
51854;SDS011;37895;53.240;6.572;2024-03-17T11:36:43;13.98;;;9.02;;
51854;SDS011;37895;53.240;6.572;2024-03-17T11:39:09;12.20;;;9.15;;
51854;SDS011;37895;53.240;6.572;2024-03-17T11:41:50;11.65;;;9.35;;
51854;SDS011;37895;53.240;6.572;2024-03-17T11:46:56;13.00;;;9.20;;
51854;SDS011;37895;53.240;6.572;2024-03-17T11:49:31;11.15;;;9.05;;
51854;SDS011;37895;53.240;6.572;2024-03-17T11:52:13;12.48;;;9.02;;
51854;SDS011;37895;53.240;6.572;2024-03-17T11:54:40;11.63;;;9.30;;
51854;SDS011;37895;53.240;6.572;2024-03-17T11:57:13;11.68;;;9.32;;
51854;SDS011;37895;53.240;6.572;2024-03-17T11:59:47;10.98;;;9.50;;
51854;SDS011;37895;53.240;6.572;2024-03-17T12:02:17;14.70;;;9.52;;
51854;SDS011;37895;53.240;6.572;2024-03-17T12:04:44;13.05;;;10.18;;
51854;SDS011;37895;53.240;6.572;2024-03-17T12:07:14;12.55;;;11.25;;
51854;SDS011;37895;53.240;6.572;2024-03-17T12:09:41;14.32;;;11.23;;
51854;SDS011;37895;53.240;6.572;2024-03-17T12:12:27;12.50;;;10.23;;
51854;SDS011;37895;53.240;6.572;2024-03-17T12:15:03;12.77;;;10.48;;
51854;SDS011;37895;53.240;6.572;2024-03-17T12:17:36;11.98;;;9.88;;
51854;SDS011;37895;53.240;6.572;2024-03-17T12:20:01;11.30;;;10.02;;
51854;SDS011;37895;53.240;6.572;2024-03-17T12:22:29;11.63;;;10.32;;
51854;SDS011;37895;53.240;6.572;2024-03-17T12:25:01;12.13;;;10.30;;
51854;SDS011;37895;53.240;6.572;2024-03-17T12:27:27;11.98;;;10.45;;
51854;SDS011;37895;53.240;6.572;2024-03-17T12:29:53;11.25;;;10.15;;
51854;SDS011;37895;53.240;6.572;2024-03-17T12:32:20;11.77;;;10.15;;
51854;SDS011;37895;53.240;6.572;2024-03-17T12:34:59;10.25;;;9.05;;
51854;SDS011;37895;53.240;6.572;2024-03-17T12:37:27;11.77;;;9.95;;
51854;SDS011;37895;53.240;6.572;2024-03-17T12:39:59;12.32;;;10.30;;
51854;SDS011;37895;53.240;6.572;2024-03-17T12:42:26;15.18;;;10.73;;
51854;SDS011;37895;53.240;6.572;2024-03-17T12:47:23;12.10;;;10.43;;
51854;SDS011;37895;53.240;6.572;2024-03-17T12:52:25;12.30;;;11.00;;
51854;SDS011;37895;53.240;6.572;2024-03-17T12:57:42;15.35;;;11.75;;
51854;SDS011;37895;53.240;6.572;2024-03-17T13:00:31;14.45;;;11.68;;
51854;SDS011;37895;53.240;6.572;2024-03-17T13:02:57;15.73;;;12.27;;
51854;SDS011;37895;53.240;6.572;2024-03-17T13:05:23;14.15;;;12.52;;
51854;SDS011;37895;53.240;6.572;2024-03-17T13:07:49;15.30;;;12.05;;
51854;SDS011;37895;53.240;6.572;2024-03-17T13:10:15;17.33;;;12.68;;
51854;SDS011;37895;53.240;6.572;2024-03-17T13:12:42;16.30;;;12.63;;
51854;SDS011;37895;53.240;6.572;2024-03-17T13:15:16;16.45;;;12.57;;
51854;SDS011;37895;53.240;6.572;2024-03-17T13:17:42;14.85;;;12.82;;
51854;SDS011;37895;53.240;6.572;2024-03-17T13:20:13;13.90;;;12.10;;
51854;SDS011;37895;53.240;6.572;2024-03-17T13:22:42;14.88;;;11.85;;
51854;SDS011;37895;53.240;6.572;2024-03-17T13:25:13;14.85;;;12.18;;
51854;SDS011;37895;53.240;6.572;2024-03-17T13:27:41;15.85;;;12.20;;
51854;SDS011;37895;53.240;6.572;2024-03-17T13:30:07;14.27;;;10.93;;
51854;SDS011;37895;53.240;6.572;2024-03-17T13:32:34;14.30;;;12.02;;
51854;SDS011;37895;53.240;6.572;2024-03-17T13:35:01;17.52;;;12.02;;
51854;SDS011;37895;53.240;6.572;2024-03-17T13:37:27;16.63;;;12.40;;
51854;SDS011;37895;53.240;6.572;2024-03-17T13:39:52;13.98;;;11.07;;
51854;SDS011;37895;53.240;6.572;2024-03-17T13:42:19;15.40;;;12.48;;
51854;SDS011;37895;53.240;6.572;2024-03-17T13:44:45;14.00;;;11.73;;
51854;SDS011;37895;53.240;6.572;2024-03-17T13:47:11;14.23;;;12.48;;
51854;SDS011;37895;53.240;6.572;2024-03-17T13:49:39;14.68;;;12.98;;
51854;SDS011;37895;53.240;6.572;2024-03-17T13:52:04;15.23;;;13.00;;
51854;SDS011;37895;53.240;6.572;2024-03-17T13:54:30;15.77;;;12.45;;
51854;SDS011;37895;53.240;6.572;2024-03-17T13:56:57;17.52;;;12.80;;
51854;SDS011;37895;53.240;6.572;2024-03-17T13:59:23;14.35;;;12.85;;
51854;SDS011;37895;53.240;6.572;2024-03-17T14:01:51;14.23;;;11.95;;
51854;SDS011;37895;53.240;6.572;2024-03-17T14:04:16;14.52;;;12.10;;
51854;SDS011;37895;53.240;6.572;2024-03-17T14:06:46;13.68;;;12.10;;
51854;SDS011;37895;53.240;6.572;2024-03-17T14:12:00;15.35;;;12.05;;
51854;SDS011;37895;53.240;6.572;2024-03-17T14:14:25;13.98;;;11.68;;
51854;SDS011;37895;53.240;6.572;2024-03-17T14:19:36;13.10;;;11.45;;
51854;SDS011;37895;53.240;6.572;2024-03-17T14:22:01;12.88;;;11.48;;
51854;SDS011;37895;53.240;6.572;2024-03-17T14:24:27;13.13;;;11.73;;
51854;SDS011;37895;53.240;6.572;2024-03-17T14:29:19;11.45;;;10.25;;
51854;SDS011;37895;53.240;6.572;2024-03-17T14:31:44;13.85;;;10.93;;
51854;SDS011;37895;53.240;6.572;2024-03-17T14:34:10;14.88;;;11.70;;
51854;SDS011;37895;53.240;6.572;2024-03-17T14:36:36;14.15;;;11.30;;
51854;SDS011;37895;53.240;6.572;2024-03-17T14:39:02;13.55;;;10.98;;
51854;SDS011;37895;53.240;6.572;2024-03-17T14:41:29;11.73;;;10.52;;
51854;SDS011;37895;53.240;6.572;2024-03-17T14:43:55;12.90;;;11.20;;
51854;SDS011;37895;53.240;6.572;2024-03-17T14:46:22;11.98;;;10.75;;
51854;SDS011;37895;53.240;6.572;2024-03-17T14:48:51;11.63;;;10.40;;
51854;SDS011;37895;53.240;6.572;2024-03-17T14:51:17;11.88;;;10.60;;
51854;SDS011;37895;53.240;6.572;2024-03-17T14:53:43;12.10;;;10.43;;
51854;SDS011;37895;53.240;6.572;2024-03-17T14:56:16;13.40;;;11.27;;
51854;SDS011;37895;53.240;6.572;2024-03-17T14:58:43;12.52;;;11.02;;
51854;SDS011;37895;53.240;6.572;2024-03-17T15:01:09;11.88;;;10.55;;
51854;SDS011;37895;53.240;6.572;2024-03-17T15:03:35;12.75;;;11.23;;
51854;SDS011;37895;53.240;6.572;2024-03-17T15:06:01;12.05;;;10.85;;
51854;SDS011;37895;53.240;6.572;2024-03-17T15:08:30;11.32;;;10.20;;
51854;SDS011;37895;53.240;6.572;2024-03-17T15:10:56;14.25;;;10.90;;
51854;SDS011;37895;53.240;6.572;2024-03-17T15:13:21;12.57;;;10.70;;
51854;SDS011;37895;53.240;6.572;2024-03-17T15:15:48;12.85;;;10.68;;
51854;SDS011;37895;53.240;6.572;2024-03-17T15:18:15;12.48;;;10.27;;
51854;SDS011;37895;53.240;6.572;2024-03-17T15:23:06;12.88;;;10.23;;
51854;SDS011;37895;53.240;6.572;2024-03-17T15:25:32;13.15;;;10.40;;
51854;SDS011;37895;53.240;6.572;2024-03-17T15:27:58;13.05;;;10.98;;
51854;SDS011;37895;53.240;6.572;2024-03-17T15:30:26;12.77;;;11.35;;
51854;SDS011;37895;53.240;6.572;2024-03-17T15:32:54;13.13;;;10.98;;
51854;SDS011;37895;53.240;6.572;2024-03-17T15:35:21;12.07;;;10.88;;
51854;SDS011;37895;53.240;6.572;2024-03-17T15:40:13;11.85;;;10.70;;
51854;SDS011;37895;53.240;6.572;2024-03-17T15:42:42;12.82;;;11.52;;
51854;SDS011;37895;53.240;6.572;2024-03-17T15:45:12;13.27;;;11.88;;
51854;SDS011;37895;53.240;6.572;2024-03-17T15:47:38;14.35;;;12.07;;
51854;SDS011;37895;53.240;6.572;2024-03-17T15:50:03;14.20;;;12.27;;